createdAt,value
2016-12-24T00:00:21.106Z,1021.02
2016-12-24T00:01:43.194Z,1021.04
2016-12-24T00:03:04.312Z,1021.02
2016-12-24T00:04:25.915Z,1020.99
2016-12-24T00:05:48.007Z,1020.98
2016-12-24T00:07:10.186Z,1020.97
2016-12-24T00:08:31.954Z,1020.95
2016-12-24T00:09:53.377Z,1020.94
2016-12-24T00:11:15.226Z,1020.88
2016-12-24T00:12:36.791Z,1020.85
2016-12-24T00:13:58.279Z,1020.89
2016-12-24T00:15:19.772Z,1020.82
2016-12-24T00:16:41.204Z,1020.8
2016-12-24T00:18:02.996Z,1020.8
2016-12-24T00:19:25.150Z,1020.82
2016-12-24T00:20:47.265Z,1020.85
2016-12-24T00:22:09.366Z,1020.76
2016-12-24T00:23:31.334Z,1020.79
2016-12-24T00:24:52.779Z,1020.81
2016-12-24T00:26:14.215Z,1020.8
2016-12-24T00:27:36.336Z,1020.82
2016-12-24T00:28:58.394Z,1020.77
2016-12-24T00:30:20.453Z,1020.81
2016-12-24T00:31:41.975Z,1020.71
2016-12-24T00:33:03.738Z,1020.73
2016-12-24T00:34:25.908Z,1020.81
2016-12-24T00:35:47.965Z,1020.76
2016-12-24T00:37:09.725Z,1020.66
2016-12-24T00:38:31.266Z,1020.75
2016-12-24T00:39:53.345Z,1020.67
2016-12-24T00:41:14.886Z,1020.78
2016-12-24T00:42:36.646Z,1020.85
2016-12-24T00:43:58.707Z,1020.78
2016-12-24T00:45:20.200Z,1020.76
2016-12-24T00:46:42.288Z,1020.87
2016-12-24T00:48:04.339Z,1020.9
2016-12-24T00:49:26.374Z,1020.91
2016-12-24T00:50:48.165Z,1020.94
2016-12-24T00:52:10.247Z,1020.97
2016-12-24T00:53:32.033Z,1020.79
2016-12-24T00:54:54.096Z,1020.73
2016-12-24T00:56:15.232Z,1020.73
2016-12-24T00:57:36.664Z,1020.82
2016-12-24T00:58:57.835Z,1020.85
2016-12-24T01:00:19.575Z,1020.96
2016-12-24T01:01:41.137Z,1020.93
2016-12-24T01:03:02.606Z,1020.94
2016-12-24T01:04:24.043Z,1020.92
2016-12-24T01:05:46.106Z,1020.91
2016-12-24T01:07:07.547Z,1020.99
2016-12-24T01:08:29.696Z,1020.98
2016-12-24T01:09:51.759Z,1021.03
2016-12-24T01:11:13.537Z,1020.96
2016-12-24T01:12:35.915Z,1020.95
2016-12-24T01:13:57.526Z,1020.95
2016-12-24T01:15:19.379Z,1020.94
2016-12-24T01:16:41.113Z,1020.89
2016-12-24T01:18:02.915Z,1020.92
2016-12-24T01:19:24.364Z,1020.84
2016-12-24T01:20:46.605Z,1020.84
2016-12-24T01:22:08.046Z,1020.87
2016-12-24T01:23:29.315Z,1020.85
2016-12-24T01:24:51.367Z,1020.84
2016-12-24T01:26:13.272Z,1020.9
2016-12-24T01:27:34.707Z,1020.81
2016-12-24T01:28:56.776Z,1020.86
2016-12-24T01:30:18.306Z,1020.8
2016-12-24T01:31:40.367Z,1020.79
2016-12-24T01:33:02.557Z,1020.87
2016-12-24T01:34:24.301Z,1020.84
2016-12-24T01:35:46.045Z,1020.81
2016-12-24T01:37:08.105Z,1020.86
2016-12-24T01:38:29.846Z,1020.85
2016-12-24T01:39:50.966Z,1020.78
2016-12-24T01:41:13.347Z,1020.86
2016-12-24T01:42:35.444Z,1020.82
2016-12-24T01:43:57.219Z,1020.8
2016-12-24T01:45:19.277Z,1020.84
2016-12-24T01:46:41.337Z,1020.74
2016-12-24T01:48:02.835Z,1020.78
2016-12-24T01:49:24.976Z,1020.7
2016-12-24T01:50:46.440Z,1020.61
2016-12-24T01:52:07.556Z,1020.62
2016-12-24T01:53:29.698Z,1020.65
2016-12-24T01:54:52.056Z,1020.64
2016-12-24T01:56:13.227Z,1020.62
2016-12-24T01:57:34.686Z,1020.56
2016-12-24T01:58:56.755Z,1020.6
2016-12-24T02:00:18.801Z,1020.6
2016-12-24T02:01:40.551Z,1020.59
2016-12-24T02:03:02.006Z,1020.6
2016-12-24T02:04:23.773Z,1020.61
2016-12-24T02:05:45.617Z,1020.65
2016-12-24T02:07:07.363Z,1020.61
2016-12-24T02:08:28.910Z,1020.65
2016-12-24T02:09:50.674Z,1020.64
2016-12-24T02:11:12.767Z,1020.6
2016-12-24T02:12:34.811Z,1020.69
2016-12-24T02:13:56.660Z,1020.58
2016-12-24T02:15:18.515Z,1020.64
2016-12-24T02:16:40.093Z,1020.58
2016-12-24T02:18:02.455Z,1020.59
2016-12-24T02:19:24.322Z,1020.56
2016-12-24T02:20:45.805Z,1020.5
2016-12-24T02:22:07.555Z,1020.5
2016-12-24T02:23:29.162Z,1020.53
2016-12-24T02:24:50.743Z,1020.52
2016-12-24T02:26:12.805Z,1020.55
2016-12-24T02:27:34.670Z,1020.61
2016-12-24T02:28:57.042Z,1020.56
2016-12-24T02:30:18.463Z,1020.53
2016-12-24T02:31:40.536Z,1020.47
2016-12-24T02:33:02.163Z,1020.41
2016-12-24T02:34:24.251Z,1020.44
2016-12-24T02:35:45.696Z,1020.4
2016-12-24T02:37:07.765Z,1020.41
2016-12-24T02:38:29.514Z,1020.43
2016-12-24T02:39:51.354Z,1020.4
2016-12-24T02:41:12.825Z,1020.47
2016-12-24T02:42:34.862Z,1020.46
2016-12-24T02:43:56.372Z,1020.49
2016-12-24T02:45:18.097Z,1020.47
2016-12-24T02:46:39.632Z,1020.41
2016-12-24T02:48:01.452Z,1020.39
2016-12-24T02:49:23.394Z,1020.39
2016-12-24T02:50:45.188Z,1020.37
2016-12-24T02:52:06.961Z,1020.47
2016-12-24T02:53:27.822Z,1020.41
2016-12-24T02:54:49.665Z,1020.45
2016-12-24T02:56:12.034Z,1020.53
2016-12-24T02:57:33.589Z,1020.55
2016-12-24T02:58:54.732Z,1020.53
2016-12-24T03:00:16.539Z,1020.6
2016-12-24T03:01:38.291Z,1020.59
2016-12-24T03:02:59.422Z,1020.63
2016-12-24T03:04:21.214Z,1020.62
2016-12-24T03:05:43.585Z,1020.59
2016-12-24T03:07:05.742Z,1020.55
2016-12-24T03:08:27.813Z,1020.62
2016-12-24T03:09:49.009Z,1020.66
2016-12-24T03:11:10.453Z,1020.59
2016-12-24T03:12:31.974Z,1020.61
2016-12-24T03:13:54.036Z,1020.54
2016-12-24T03:15:16.143Z,1020.56
2016-12-24T03:16:38.315Z,1020.58
2016-12-24T03:18:00.676Z,1020.54
2016-12-24T03:19:22.542Z,1020.51
2016-12-24T03:20:44.692Z,1020.57
2016-12-24T03:22:05.543Z,1020.58
2016-12-24T03:23:27.262Z,1020.57
2016-12-24T03:24:49.044Z,1020.56
2016-12-24T03:26:11.116Z,1020.56
2016-12-24T03:27:33.214Z,1020.55
2016-12-24T03:28:55.302Z,1020.51
2016-12-24T03:30:17.054Z,1020.53
2016-12-24T03:31:38.867Z,1020.5
2016-12-24T03:33:00.634Z,1020.41
2016-12-24T03:34:22.392Z,1020.46
2016-12-24T03:35:44.614Z,1020.34
2016-12-24T03:37:06.365Z,1020.35
2016-12-24T03:38:27.484Z,1020.39
2016-12-24T03:39:49.245Z,1020.41
2016-12-24T03:41:11.610Z,1020.46
2016-12-24T03:42:33.171Z,1020.44
2016-12-24T03:43:55.236Z,1020.4
2016-12-24T03:45:17.104Z,1020.41
2016-12-24T03:46:38.877Z,1020.37
2016-12-24T03:48:00.688Z,1020.39
2016-12-24T03:49:22.154Z,1020.34
2016-12-24T03:50:43.621Z,1020.4
2016-12-24T03:52:05.694Z,1020.41
2016-12-24T03:53:27.962Z,1020.34
2016-12-24T03:54:48.895Z,1020.34
2016-12-24T03:56:10.347Z,1020.33
2016-12-24T03:57:31.775Z,1020.27
2016-12-24T03:58:53.824Z,1020.35
2016-12-24T04:00:15.384Z,1020.37
2016-12-24T04:01:37.161Z,1020.42
2016-12-24T04:02:58.923Z,1020.46
2016-12-24T04:04:21.018Z,1020.39
2016-12-24T04:05:42.134Z,1020.44
2016-12-24T04:07:03.865Z,1020.44
2016-12-24T04:08:25.704Z,1020.54
2016-12-24T04:09:47.133Z,1020.58
2016-12-24T04:11:09.225Z,1020.62
2016-12-24T04:12:31.140Z,1020.61
2016-12-24T04:13:52.903Z,1020.62
2016-12-24T04:15:15.007Z,1020.64
2016-12-24T04:16:36.270Z,1020.69
2016-12-24T04:17:58.035Z,1020.67
2016-12-24T04:19:20.105Z,1020.7
2016-12-24T04:20:41.908Z,1020.66
2016-12-24T04:22:03.341Z,1020.69
2016-12-24T04:23:25.731Z,1020.67
2016-12-24T04:24:47.487Z,1020.75
2016-12-24T04:26:09.252Z,1020.68
2016-12-24T04:27:31.135Z,1020.72
2016-12-24T04:28:53.515Z,1020.71
2016-12-24T04:30:14.644Z,1020.71
2016-12-24T04:31:36.384Z,1020.72
2016-12-24T04:32:58.160Z,1020.67
2016-12-24T04:34:20.254Z,1020.64
2016-12-24T04:35:42.306Z,1020.62
2016-12-24T04:37:04.363Z,1020.61
2016-12-24T04:38:25.480Z,1020.62
2016-12-24T04:39:46.988Z,1020.58
2016-12-24T04:41:08.429Z,1020.58
2016-12-24T04:42:30.295Z,1020.63
2016-12-24T04:43:51.552Z,1020.59
2016-12-24T04:45:12.735Z,1020.57
2016-12-24T04:46:34.495Z,1020.5
2016-12-24T04:47:55.965Z,1020.46
2016-12-24T04:49:17.711Z,1020.46
2016-12-24T04:50:38.883Z,1020.43
2016-12-24T04:52:01.061Z,1020.37
2016-12-24T04:53:22.524Z,1020.39
2016-12-24T04:54:44.271Z,1020.39
2016-12-24T04:56:06.490Z,1020.41
2016-12-24T04:57:28.065Z,1020.4
2016-12-24T04:58:50.124Z,1020.43
2016-12-24T05:00:11.644Z,1020.42
2016-12-24T05:01:33.594Z,1020.37
2016-12-24T05:02:55.732Z,1020.39
2016-12-24T05:04:17.170Z,1020.43
2016-12-24T05:05:39.075Z,1020.47
2016-12-24T05:07:01.306Z,1020.48
2016-12-24T05:08:23.056Z,1020.49
2016-12-24T05:09:44.814Z,1020.41
2016-12-24T05:11:06.364Z,1020.51
2016-12-24T05:12:28.098Z,1020.5
2016-12-24T05:13:49.542Z,1020.46
2016-12-24T05:15:11.014Z,1020.47
2016-12-24T05:16:33.259Z,1020.53
2016-12-24T05:17:55.130Z,1020.55
2016-12-24T05:19:16.978Z,1020.55
2016-12-24T05:20:38.736Z,1020.55
2016-12-24T05:22:00.194Z,1020.49
2016-12-24T05:23:21.637Z,1020.44
2016-12-24T05:24:43.400Z,1020.38
2016-12-24T05:26:05.015Z,1020.43
2016-12-24T05:27:25.886Z,1020.49
2016-12-24T05:28:47.946Z,1020.44
2016-12-24T05:30:09.384Z,1020.47
2016-12-24T05:31:31.447Z,1020.49
2016-12-24T05:32:53.179Z,1020.48
2016-12-24T05:34:14.626Z,1020.46
2016-12-24T05:35:36.214Z,1020.47
2016-12-24T05:36:58.106Z,1020.47
2016-12-24T05:38:19.968Z,1020.46
2016-12-24T05:39:41.165Z,1020.43
2016-12-24T05:41:02.915Z,1020.46
2016-12-24T05:42:24.770Z,1020.45
2016-12-24T05:43:46.864Z,1020.47
2016-12-24T05:45:08.298Z,1020.5
2016-12-24T05:46:30.175Z,1020.46
2016-12-24T05:47:52.327Z,1020.49
2016-12-24T05:49:14.119Z,1020.48
2016-12-24T05:50:36.306Z,1020.52
2016-12-24T05:51:57.897Z,1020.51
2016-12-24T05:53:19.377Z,1020.56
2016-12-24T05:54:40.825Z,1020.67
2016-12-24T05:56:02.575Z,1020.67
2016-12-24T05:57:24.385Z,1020.59
2016-12-24T05:58:45.817Z,1020.65
2016-12-24T06:00:07.613Z,1020.64
2016-12-24T06:01:29.375Z,1020.65
2016-12-24T06:02:50.549Z,1020.7
2016-12-24T06:04:12.727Z,1020.68
2016-12-24T06:05:34.217Z,1020.7
2016-12-24T06:06:55.719Z,1020.75
2016-12-24T06:08:17.780Z,1020.77
2016-12-24T06:09:39.326Z,1020.8
2016-12-24T06:11:01.173Z,1020.8
2016-12-24T06:12:23.062Z,1020.79
2016-12-24T06:13:44.542Z,1020.78
2016-12-24T06:15:05.771Z,1020.78
2016-12-24T06:16:27.320Z,1020.8
2016-12-24T06:17:49.386Z,1020.82
2016-12-24T06:19:11.985Z,1020.83
2016-12-24T06:20:33.256Z,1020.74
2016-12-24T06:21:55.518Z,1020.74
2016-12-24T06:23:17.408Z,1020.8
2016-12-24T06:24:39.150Z,1020.83
2016-12-24T06:26:01.218Z,1020.83
2016-12-24T06:27:22.977Z,1020.83
2016-12-24T06:28:44.095Z,1020.92
2016-12-24T06:30:06.150Z,1020.83
2016-12-24T06:31:27.907Z,1020.9
2016-12-24T06:32:49.979Z,1020.89
2016-12-24T06:34:11.435Z,1020.87
2016-12-24T06:35:33.611Z,1020.86
2016-12-24T06:36:55.347Z,1020.88
2016-12-24T06:38:17.774Z,1020.89
2016-12-24T06:39:39.225Z,1020.88
2016-12-24T06:41:01.299Z,1021.01
2016-12-24T06:42:22.715Z,1020.96
2016-12-24T06:43:43.837Z,1020.91
2016-12-24T06:45:05.267Z,1020.96
2016-12-24T06:46:27.016Z,1021
2016-12-24T06:47:48.532Z,1020.98
2016-12-24T06:49:09.740Z,1020.96
2016-12-24T06:50:31.887Z,1020.99
2016-12-24T06:51:54.161Z,1020.96
2016-12-24T06:53:15.901Z,1020.95
2016-12-24T06:54:37.797Z,1020.97
2016-12-24T06:55:59.555Z,1020.93
2016-12-24T06:57:21.077Z,1020.94
2016-12-24T06:58:43.473Z,1020.92
2016-12-24T07:00:05.901Z,1020.92
2016-12-24T07:01:27.653Z,1020.94
2016-12-24T07:02:48.776Z,1020.96
2016-12-24T07:04:10.215Z,1020.91
2016-12-24T07:05:31.726Z,1020.99
2016-12-24T07:06:53.773Z,1021.04
2016-12-24T07:08:15.320Z,1021.07
2016-12-24T07:09:36.780Z,1021.06
2016-12-24T07:10:58.936Z,1021.1
2016-12-24T07:12:21.096Z,1021.14
2016-12-24T07:13:42.868Z,1021.07
2016-12-24T07:15:04.069Z,1021.11
2016-12-24T07:16:25.816Z,1021.23
2016-12-24T07:17:46.964Z,1021.12
2016-12-24T07:19:09.027Z,1021.21
2016-12-24T07:20:31.113Z,1021.22
2016-12-24T07:21:52.673Z,1021.28
2016-12-24T07:23:13.855Z,1021.3
2016-12-24T07:24:35.906Z,1021.32
2016-12-24T07:25:57.029Z,1021.29
2016-12-24T07:27:18.775Z,1021.31
2016-12-24T07:28:40.318Z,1021.31
2016-12-24T07:30:02.157Z,1021.24
2016-12-24T07:31:23.602Z,1021.24
2016-12-24T07:32:45.695Z,1021.26
2016-12-24T07:34:07.180Z,1021.22
2016-12-24T07:37:05.602Z,1021.1
2016-12-24T07:38:27.349Z,1021.15
2016-12-24T07:39:49.177Z,1021.17
2016-12-24T07:41:11.232Z,1021.16
2016-12-24T07:42:32.727Z,1021.16
2016-12-24T07:43:55.128Z,1021.15
2016-12-24T07:45:17.286Z,1021.14
2016-12-24T07:46:38.407Z,1021.17
2016-12-24T07:47:59.544Z,1021.1
2016-12-24T07:49:21.025Z,1021.08
2016-12-24T07:50:43.103Z,1021.05
2016-12-24T07:52:04.895Z,1021.09
2016-12-24T07:53:26.811Z,1021.07
2016-12-24T07:54:48.696Z,1021.07
2016-12-24T07:56:10.465Z,1021.05
2016-12-24T07:57:32.215Z,1021
2016-12-24T07:58:53.989Z,1021.04
2016-12-24T08:00:15.422Z,1021.05
2016-12-24T08:01:37.784Z,1021.07
2016-12-24T08:02:59.536Z,1021.08
2016-12-24T08:04:21.331Z,1021.1
2016-12-24T08:05:43.106Z,1021.06
2016-12-24T08:07:04.557Z,1021.09
2016-12-24T08:08:26.305Z,1021.07
2016-12-24T08:09:48.391Z,1021.04
2016-12-24T08:11:09.821Z,1021
2016-12-24T08:12:30.936Z,1021.08
2016-12-24T08:13:52.716Z,1021.14
2016-12-24T08:15:14.476Z,1021.11
2016-12-24T08:16:36.236Z,1021.15
2016-12-24T08:17:58.286Z,1021.2
2016-12-24T08:19:20.033Z,1021.17
2016-12-24T08:20:41.896Z,1021.2
2016-12-24T08:22:03.354Z,1021.11
2016-12-24T08:23:25.201Z,1021.13
2016-12-24T08:24:46.781Z,1021.13
2016-12-24T08:26:07.915Z,1021.16
2016-12-24T08:27:29.341Z,1021.09
2016-12-24T08:28:51.095Z,1021.11
2016-12-24T08:30:12.524Z,1021.15
2016-12-24T08:31:34.584Z,1021.16
2016-12-24T08:32:56.082Z,1021.21
2016-12-24T08:34:17.559Z,1021.26
2016-12-24T08:35:39.327Z,1021.29
2016-12-24T08:37:00.775Z,1021.27
2016-12-24T08:38:22.848Z,1021.33
2016-12-24T08:39:44.927Z,1021.32
2016-12-24T08:41:07.344Z,1021.3
2016-12-24T08:42:28.467Z,1021.33
2016-12-24T08:43:50.237Z,1021.32
2016-12-24T08:45:12.166Z,1021.31
2016-12-24T08:46:34.032Z,1021.3
2016-12-24T08:47:55.480Z,1021.34
2016-12-24T08:49:17.306Z,1021.3
2016-12-24T08:50:39.112Z,1021.26
2016-12-24T08:52:01.207Z,1021.28
2016-12-24T08:53:22.696Z,1021.29
2016-12-24T08:54:44.149Z,1021.25
2016-12-24T08:56:05.324Z,1021.24
2016-12-24T08:57:26.764Z,1021.2
2016-12-24T08:58:48.829Z,1021.18
2016-12-24T09:00:11.349Z,1021.2
2016-12-24T09:01:33.417Z,1021.26
2016-12-24T09:02:54.867Z,1021.25
2016-12-24T09:04:16.942Z,1021.32
2016-12-24T09:05:38.837Z,1021.29
2016-12-24T09:07:00.055Z,1021.27
2016-12-24T09:08:21.841Z,1021.35
2016-12-24T09:09:43.928Z,1021.35
2016-12-24T09:11:05.997Z,1021.28
2016-12-24T09:12:27.122Z,1021.29
2016-12-24T09:13:49.165Z,1021.28
2016-12-24T09:15:11.308Z,1021.26
2016-12-24T09:16:33.584Z,1021.32
2016-12-24T09:17:55.125Z,1021.36
2016-12-24T09:19:16.896Z,1021.37
2016-12-24T09:20:38.983Z,1021.28
2016-12-24T09:22:00.814Z,1021.29
2016-12-24T09:23:22.875Z,1021.26
2016-12-24T09:24:45.096Z,1021.3
2016-12-24T09:26:07.164Z,1021.25
2016-12-24T09:27:28.596Z,1021.29
2016-12-24T09:28:50.652Z,1021.36
2016-12-24T09:30:12.701Z,1021.35
2016-12-24T09:31:34.462Z,1021.26
2016-12-24T09:32:56.525Z,1021.29
2016-12-24T09:34:17.658Z,1021.25
2016-12-24T09:35:39.405Z,1021.28
2016-12-24T09:37:01.195Z,1021.26
2016-12-24T09:38:23.356Z,1021.32
2016-12-24T09:39:44.573Z,1021.24
2016-12-24T09:41:05.713Z,1021.15
2016-12-24T09:42:27.480Z,1021.15
2016-12-24T09:43:49.314Z,1021.19
2016-12-24T09:45:11.096Z,1021.19
2016-12-24T09:46:32.946Z,1021.18
2016-12-24T09:47:54.402Z,1021.19
2016-12-24T09:49:16.168Z,1021.17
2016-12-24T09:50:37.945Z,1021.14
2016-12-24T09:51:59.745Z,1021.08
2016-12-24T09:53:21.809Z,1021.08
2016-12-24T09:54:43.625Z,1021.15
2016-12-24T09:56:05.130Z,1021.18
2016-12-24T09:57:26.729Z,1021.14
2016-12-24T09:58:48.557Z,1021.01
2016-12-24T10:00:09.991Z,1020.89
2016-12-24T10:01:32.054Z,1020.93
2016-12-24T10:02:53.524Z,1020.93
2016-12-24T10:04:15.299Z,1021.02
2016-12-24T10:05:37.069Z,1020.97
2016-12-24T10:06:59.542Z,1020.99
2016-12-24T10:08:21.315Z,1020.94
2016-12-24T10:09:42.754Z,1020.98
2016-12-24T10:11:04.957Z,1021.08
2016-12-24T10:12:26.814Z,1020.92
2016-12-24T10:13:48.856Z,1021
2016-12-24T10:15:10.933Z,1021.05
2016-12-24T10:16:33.015Z,1021.08
2016-12-24T10:17:55.279Z,1021.01
2016-12-24T10:19:17.365Z,1021.02
2016-12-24T10:20:40.007Z,1021.01
2016-12-24T10:22:01.774Z,1021.02
2016-12-24T10:23:24.260Z,1020.96
2016-12-24T10:24:45.706Z,1020.9
2016-12-24T10:26:07.476Z,1020.82
2016-12-24T10:27:29.546Z,1020.83
2016-12-24T10:28:50.675Z,1020.79
2016-12-24T10:30:12.173Z,1020.9
2016-12-24T10:31:33.957Z,1020.92
2016-12-24T10:32:55.732Z,1020.93
2016-12-24T10:34:17.804Z,1020.88
2016-12-24T10:35:39.886Z,1020.94
2016-12-24T10:37:02.305Z,1020.93
2016-12-24T10:38:24.064Z,1020.97
2016-12-24T10:39:45.568Z,1020.86
2016-12-24T10:41:07.753Z,1020.94
2016-12-24T10:42:29.519Z,1020.87
2016-12-24T10:43:51.283Z,1020.8
2016-12-24T10:45:13.447Z,1020.89
2016-12-24T10:46:35.557Z,1020.88
2016-12-24T10:47:58.013Z,1020.84
2016-12-24T10:49:19.788Z,1020.75
2016-12-24T10:50:42.263Z,1020.82
2016-12-24T10:52:04.021Z,1020.85
2016-12-24T10:53:26.136Z,1020.9
2016-12-24T10:54:47.903Z,1020.83
2016-12-24T10:56:09.985Z,1020.96
2016-12-24T10:57:32.097Z,1020.88
2016-12-24T10:58:54.512Z,1020.88
2016-12-24T11:00:16.284Z,1020.81
2016-12-24T11:01:38.044Z,1020.74
2016-12-24T11:02:59.483Z,1020.75
2016-12-24T11:04:21.330Z,1020.8
2016-12-24T11:05:43.718Z,1020.72
2016-12-24T11:07:05.777Z,1020.7
2016-12-24T11:08:27.599Z,1020.67
2016-12-24T11:09:49.043Z,1020.66
2016-12-24T11:11:10.487Z,1020.64
2016-12-24T11:12:32.243Z,1020.64
2016-12-24T11:13:53.368Z,1020.62
2016-12-24T11:15:15.458Z,1020.62
2016-12-24T11:16:37.239Z,1020.59
2016-12-24T11:17:58.692Z,1020.57
2016-12-24T11:19:20.475Z,1020.56
2016-12-24T11:20:42.892Z,1020.58
2016-12-24T11:22:04.946Z,1020.5
2016-12-24T11:23:26.996Z,1020.6
2016-12-24T11:24:49.071Z,1020.49
2016-12-24T11:26:10.846Z,1020.55
2016-12-24T11:27:32.377Z,1020.46
2016-12-24T11:28:54.463Z,1020.52
2016-12-24T11:30:16.894Z,1020.48
2016-12-24T11:31:38.354Z,1020.53
2016-12-24T11:33:00.442Z,1020.45
2016-12-24T11:34:22.505Z,1020.49
2016-12-24T11:35:44.389Z,1020.56
2016-12-24T11:37:06.430Z,1020.58
2016-12-24T11:38:28.537Z,1020.55
2016-12-24T11:39:49.501Z,1020.58
2016-12-24T11:41:11.360Z,1020.56
2016-12-24T11:42:33.433Z,1020.65
2016-12-24T11:43:54.923Z,1020.59
2016-12-24T11:45:16.387Z,1020.61
2016-12-24T11:46:38.797Z,1020.62
2016-12-24T11:48:00.551Z,1020.49
2016-12-24T11:49:22.321Z,1020.47
2016-12-24T11:50:44.184Z,1020.49
2016-12-24T11:52:06.571Z,1020.4
2016-12-24T11:53:28.653Z,1020.49
2016-12-24T11:54:50.451Z,1020.35
2016-12-24T11:56:12.211Z,1020.37
2016-12-24T11:57:34.278Z,1020.45
2016-12-24T11:58:56.575Z,1020.47
2016-12-24T12:00:18.626Z,1020.38
2016-12-24T12:01:41.020Z,1020.48
2016-12-24T12:03:35.261Z,1020.29
2016-12-24T12:04:57.353Z,1020.29
2016-12-24T12:06:19.242Z,1020.17
2016-12-24T12:07:41.368Z,1020.21
2016-12-24T12:09:03.433Z,1020.26
2016-12-24T12:10:24.564Z,1020.33
2016-12-24T12:11:46.923Z,1020.36
2016-12-24T12:13:09.333Z,1020.41
2016-12-24T12:14:31.097Z,1020.34
2016-12-24T12:15:52.553Z,1020.35
2016-12-24T12:17:14.610Z,1020.41
2016-12-24T12:18:36.731Z,1020.46
2016-12-24T12:19:58.801Z,1020.39
2016-12-24T12:21:20.355Z,1020.37
2016-12-24T12:22:42.178Z,1020.38
2016-12-24T12:24:04.388Z,1020.3
2016-12-24T12:25:26.775Z,1020.25
2016-12-24T12:26:48.601Z,1020.32
2016-12-24T12:28:10.348Z,1020.34
2016-12-24T12:29:32.802Z,1020.22
2016-12-24T12:30:54.845Z,1020.19
2016-12-24T12:32:17.231Z,1020.2
2016-12-24T12:33:39.011Z,1020.18
2016-12-24T12:35:00.829Z,1020.07
2016-12-24T12:36:22.589Z,1020.16
2016-12-24T12:37:44.030Z,1020.15
2016-12-24T12:39:05.175Z,1020.12
2016-12-24T12:40:26.943Z,1020.13
2016-12-24T12:41:49.316Z,1020.16
2016-12-24T12:43:11.151Z,1019.94
2016-12-24T12:44:33.301Z,1020.06
2016-12-24T12:45:54.492Z,1020.03
2016-12-24T12:47:16.892Z,1020.02
2016-12-24T12:48:38.466Z,1020.06
2016-12-24T12:50:00.219Z,1019.93
2016-12-24T12:51:22.084Z,1019.87
2016-12-24T12:52:43.953Z,1020.04
2016-12-24T12:54:05.710Z,1020.01
2016-12-24T12:55:27.581Z,1019.91
2016-12-24T12:56:48.762Z,1019.9
2016-12-24T12:58:10.669Z,1020
2016-12-24T12:59:32.452Z,1020
2016-12-24T13:00:54.221Z,1020
2016-12-24T13:02:16.377Z,1020.03
2016-12-24T13:03:37.911Z,1019.93
2016-12-24T13:04:59.687Z,1020.01
2016-12-24T13:06:21.480Z,1020.09
2016-12-24T13:07:43.652Z,1019.97
2016-12-24T13:09:06.100Z,1019.97
2016-12-24T13:10:27.750Z,1020.05
2016-12-24T13:11:49.871Z,1020.02
2016-12-24T13:13:11.704Z,1020.08
2016-12-24T13:14:33.467Z,1020.01
2016-12-24T13:15:55.576Z,1020.01
2016-12-24T13:17:17.362Z,1019.97
2016-12-24T13:18:39.414Z,1019.99
2016-12-24T13:20:01.798Z,1020.04
2016-12-24T13:21:24.173Z,1019.98
2016-12-24T13:22:46.623Z,1019.87
2016-12-24T13:24:08.418Z,1019.99
2016-12-24T13:25:29.561Z,1019.89
2016-12-24T13:26:51.645Z,1020.03
2016-12-24T13:28:13.465Z,1019.98
2016-12-24T13:29:35.254Z,1020
2016-12-24T13:30:57.712Z,1019.87
2016-12-24T13:32:19.853Z,1019.94
2016-12-24T13:33:41.939Z,1019.95
2016-12-24T13:35:03.769Z,1019.9
2016-12-24T13:36:25.821Z,1019.95
2016-12-24T13:37:48.001Z,1019.89
2016-12-24T13:39:09.756Z,1019.75
2016-12-24T13:40:31.886Z,1019.9
2016-12-24T13:41:53.955Z,1019.86
2016-12-24T13:43:16.443Z,1019.87
2016-12-24T13:44:38.503Z,1019.9
2016-12-24T13:46:00.256Z,1019.92
2016-12-24T13:47:22.324Z,1019.92
2016-12-24T13:48:44.070Z,1019.95
2016-12-24T13:50:06.158Z,1019.95
2016-12-24T13:51:28.243Z,1019.86
2016-12-24T13:52:49.765Z,1019.89
2016-12-24T13:54:12.148Z,1019.92
2016-12-24T13:55:34.016Z,1019.86
2016-12-24T13:56:55.475Z,1019.89
2016-12-24T13:58:17.364Z,1019.89
2016-12-24T13:59:39.475Z,1019.81
2016-12-24T14:01:01.360Z,1019.93
2016-12-24T14:02:23.405Z,1019.9
2016-12-24T14:03:44.885Z,1020
2016-12-24T14:05:06.050Z,1020.04
2016-12-24T14:06:28.118Z,1019.88
2016-12-24T14:07:49.997Z,1019.87
2016-12-24T14:09:12.125Z,1019.96
2016-12-24T14:10:33.885Z,1019.94
2016-12-24T14:11:55.736Z,1019.93
2016-12-24T14:13:17.814Z,1019.85
2016-12-24T14:14:39.613Z,1019.81
2016-12-24T14:16:01.525Z,1019.9
2016-12-24T14:17:22.665Z,1019.83
2016-12-24T14:18:44.426Z,1019.86
2016-12-24T14:20:06.547Z,1019.9
2016-12-24T14:21:28.720Z,1019.86
2016-12-24T14:22:50.482Z,1019.91
2016-12-24T14:24:12.547Z,1019.74
2016-12-24T14:25:34.305Z,1019.9
2016-12-24T14:26:56.677Z,1019.81
2016-12-24T14:28:18.736Z,1019.89
2016-12-24T14:29:40.585Z,1019.87
2016-12-24T14:31:02.209Z,1019.86
2016-12-24T14:32:23.959Z,1019.98
2016-12-24T14:33:46.041Z,1019.88
2016-12-24T14:35:07.836Z,1019.91
2016-12-24T14:36:29.887Z,1019.91
2016-12-24T14:37:51.646Z,1019.84
2016-12-24T14:39:12.813Z,1019.78
2016-12-24T14:40:35.173Z,1019.84
2016-12-24T14:41:57.036Z,1019.88
2016-12-24T14:43:18.482Z,1019.81
2016-12-24T14:44:40.554Z,1019.86
2016-12-24T14:46:02.626Z,1019.84
2016-12-24T14:47:24.732Z,1019.87
2016-12-24T14:48:46.511Z,1019.9
2016-12-24T14:50:08.642Z,1019.86
2016-12-24T14:51:31.019Z,1019.99
2016-12-24T14:52:53.076Z,1020
2016-12-24T14:54:14.650Z,1019.97
2016-12-24T14:55:36.756Z,1020.01
2016-12-24T14:56:58.892Z,1020.02
2016-12-24T14:58:20.647Z,1019.97
2016-12-24T14:59:42.436Z,1019.97
2016-12-24T15:01:04.512Z,1019.95
2016-12-24T15:02:26.292Z,1019.93
2016-12-24T15:03:48.366Z,1019.93
2016-12-24T15:05:10.115Z,1019.88
2016-12-24T15:06:32.207Z,1019.92
2016-12-24T15:07:53.969Z,1019.94
2016-12-24T15:09:15.725Z,1019.97
2016-12-24T15:10:37.343Z,1019.91
2016-12-24T15:11:59.801Z,1019.94
2016-12-24T15:13:21.561Z,1019.89
2016-12-24T15:14:43.056Z,1019.85
2016-12-24T15:16:04.817Z,1019.9
2016-12-24T15:17:26.335Z,1019.9
2016-12-24T15:18:48.094Z,1019.89
2016-12-24T15:20:09.525Z,1019.88
2016-12-24T15:21:31.967Z,1019.89
2016-12-24T15:22:54.024Z,1019.86
2016-12-24T15:24:16.125Z,1019.88
2016-12-24T15:25:37.875Z,1019.85
2016-12-24T15:26:59.681Z,1019.94
2016-12-24T15:28:21.746Z,1019.95
2016-12-24T15:29:43.927Z,1019.97
2016-12-24T15:31:06.305Z,1019.91
2016-12-24T15:32:28.675Z,1019.86
2016-12-24T15:33:50.871Z,1019.78
2016-12-24T15:35:12.308Z,1019.76
2016-12-24T15:36:34.039Z,1019.76
2016-12-24T15:37:55.866Z,1019.78
2016-12-24T15:39:17.637Z,1019.84
2016-12-24T15:40:39.685Z,1019.81
2016-12-24T15:42:02.085Z,1019.88
2016-12-24T15:43:24.456Z,1019.78
2016-12-24T15:44:46.227Z,1019.84
2016-12-24T15:46:08.056Z,1019.91
2016-12-24T15:47:29.825Z,1019.91
2016-12-24T15:48:51.287Z,1019.97
2016-12-24T15:50:13.385Z,1019.82
2016-12-24T15:51:34.506Z,1019.85
2016-12-24T15:52:56.271Z,1019.87
2016-12-24T15:54:18.321Z,1019.85
2016-12-24T15:55:40.384Z,1019.88
2016-12-24T15:57:02.466Z,1019.92
2016-12-24T15:58:24.385Z,1019.85
2016-12-24T15:59:46.163Z,1019.73
2016-12-24T16:01:08.556Z,1019.94
2016-12-24T16:02:30.306Z,1019.96
2016-12-24T16:03:52.057Z,1019.96
2016-12-24T16:05:14.423Z,1020
2016-12-24T16:06:35.960Z,1020.02
2016-12-24T16:07:58.454Z,1020.05
2016-12-24T16:09:20.914Z,1020.2
2016-12-24T16:10:42.479Z,1020.14
2016-12-24T16:12:04.866Z,1019.99
2016-12-24T16:13:27.067Z,1019.97
2016-12-24T16:14:48.864Z,1020.03
2016-12-24T16:16:10.648Z,1020.08
2016-12-24T16:17:32.097Z,1020.06
2016-12-24T16:18:54.537Z,1019.93
2016-12-24T16:20:15.678Z,1020.06
2016-12-24T16:21:38.044Z,1019.95
2016-12-24T16:22:59.834Z,1019.94
2016-12-24T16:24:22.208Z,1019.85
2016-12-24T16:25:43.968Z,1019.9
2016-12-24T16:27:06.038Z,1019.9
2016-12-24T16:28:27.851Z,1019.85
2016-12-24T16:29:49.675Z,1019.91
2016-12-24T16:31:11.249Z,1019.94
2016-12-24T16:32:33.322Z,1019.88
2016-12-24T16:33:54.494Z,1019.91
2016-12-24T16:35:15.928Z,1019.95